sensor_id;sensor_type;location;lat;lon;timestamp;temperature;humidity
6407;DHT22;3236;51.022;6.818;2023-06-04T00:04:28;12.10;99.90
6407;DHT22;3236;51.022;6.818;2023-06-04T00:14:33;11.80;99.90
6407;DHT22;3236;51.022;6.818;2023-06-04T00:17:00;11.80;99.90
6407;DHT22;3236;51.022;6.818;2023-06-04T00:19:27;11.70;99.90
6407;DHT22;3236;51.022;6.818;2023-06-04T00:21:54;11.50;99.90
6407;DHT22;3236;51.022;6.818;2023-06-04T00:26:49;11.50;99.90
6407;DHT22;3236;51.022;6.818;2023-06-04T00:41:56;11.30;99.90
6407;DHT22;3236;51.022;6.818;2023-06-04T00:49:23;11.50;99.90
6407;DHT22;3236;51.022;6.818;2023-06-04T00:51:50;11.50;99.90
6407;DHT22;3236;51.022;6.818;2023-06-04T00:54:22;11.40;99.90
6407;DHT22;3236;51.022;6.818;2023-06-04T00:59:38;11.10;99.90
6407;DHT22;3236;51.022;6.818;2023-06-04T01:02:11;10.90;99.90
6407;DHT22;3236;51.022;6.818;2023-06-04T01:04:46;10.80;99.90
6407;DHT22;3236;51.022;6.818;2023-06-04T01:07:16;10.90;99.90
6407;DHT22;3236;51.022;6.818;2023-06-04T01:09:45;10.70;99.90
6407;DHT22;3236;51.022;6.818;2023-06-04T01:12:13;10.90;99.90
6407;DHT22;3236;51.022;6.818;2023-06-04T01:14:40;11.00;99.90
6407;DHT22;3236;51.022;6.818;2023-06-04T01:17:13;11.00;99.90
6407;DHT22;3236;51.022;6.818;2023-06-04T01:19:57;10.90;99.90
6407;DHT22;3236;51.022;6.818;2023-06-04T01:22:35;10.80;99.90
6407;DHT22;3236;51.022;6.818;2023-06-04T01:25:11;10.60;99.90
6407;DHT22;3236;51.022;6.818;2023-06-04T01:27:47;10.50;99.90
6407;DHT22;3236;51.022;6.818;2023-06-04T01:32:47;10.40;99.90
6407;DHT22;3236;51.022;6.818;2023-06-04T01:35:14;10.20;99.90
6407;DHT22;3236;51.022;6.818;2023-06-04T01:40:10;10.20;99.90
6407;DHT22;3236;51.022;6.818;2023-06-04T01:42:38;10.30;99.90
6407;DHT22;3236;51.022;6.818;2023-06-04T01:45:06;10.50;99.90
6407;DHT22;3236;51.022;6.818;2023-06-04T01:47:33;10.60;99.90
6407;DHT22;3236;51.022;6.818;2023-06-04T01:50:02;10.60;99.90
6407;DHT22;3236;51.022;6.818;2023-06-04T01:52:29;10.50;99.90
6407;DHT22;3236;51.022;6.818;2023-06-04T01:54:56;10.50;99.90
6407;DHT22;3236;51.022;6.818;2023-06-04T01:57:24;10.40;99.90
6407;DHT22;3236;51.022;6.818;2023-06-04T01:59:51;10.30;99.90
6407;DHT22;3236;51.022;6.818;2023-06-04T02:02:30;10.10;99.90
6407;DHT22;3236;51.022;6.818;2023-06-04T02:05:02;10.10;99.90
6407;DHT22;3236;51.022;6.818;2023-06-04T02:07:29;10.10;99.90
6407;DHT22;3236;51.022;6.818;2023-06-04T02:09:58;10.20;99.90
6407;DHT22;3236;51.022;6.818;2023-06-04T02:12:26;10.20;99.90
6407;DHT22;3236;51.022;6.818;2023-06-04T02:14:53;10.20;99.90
6407;DHT22;3236;51.022;6.818;2023-06-04T02:17:20;10.30;99.90
6407;DHT22;3236;51.022;6.818;2023-06-04T02:19:48;10.30;99.90
6407;DHT22;3236;51.022;6.818;2023-06-04T02:22:18;10.20;99.90
6407;DHT22;3236;51.022;6.818;2023-06-04T02:24:45;10.30;99.90
6407;DHT22;3236;51.022;6.818;2023-06-04T02:27:13;10.30;99.90
6407;DHT22;3236;51.022;6.818;2023-06-04T02:29:41;10.20;99.90
6407;DHT22;3236;51.022;6.818;2023-06-04T02:32:09;10.30;99.90
6407;DHT22;3236;51.022;6.818;2023-06-04T02:34:39;10.30;99.90
6407;DHT22;3236;51.022;6.818;2023-06-04T02:37:06;10.30;99.90
6407;DHT22;3236;51.022;6.818;2023-06-04T02:39:35;10.20;99.90
6407;DHT22;3236;51.022;6.818;2023-06-04T02:42:06;10.30;99.90
6407;DHT22;3236;51.022;6.818;2023-06-04T02:44:33;10.20;99.90
6407;DHT22;3236;51.022;6.818;2023-06-04T02:47:00;10.20;99.90
6407;DHT22;3236;51.022;6.818;2023-06-04T02:49:27;10.10;99.90
6407;DHT22;3236;51.022;6.818;2023-06-04T02:51:54;10.10;99.90
6407;DHT22;3236;51.022;6.818;2023-06-04T02:54:21;9.90;99.90
6407;DHT22;3236;51.022;6.818;2023-06-04T02:56:49;9.90;99.90
6407;DHT22;3236;51.022;6.818;2023-06-04T02:59:17;10.00;99.90
6407;DHT22;3236;51.022;6.818;2023-06-04T03:01:44;9.80;99.90
6407;DHT22;3236;51.022;6.818;2023-06-04T03:04:11;9.60;99.90
6407;DHT22;3236;51.022;6.818;2023-06-04T03:06:41;9.90;99.90
6407;DHT22;3236;51.022;6.818;2023-06-04T03:09:11;10.00;99.90
6407;DHT22;3236;51.022;6.818;2023-06-04T03:11:39;10.10;99.90
6407;DHT22;3236;51.022;6.818;2023-06-04T03:14:11;10.00;99.90
6407;DHT22;3236;51.022;6.818;2023-06-04T03:16:38;10.30;99.90
6407;DHT22;3236;51.022;6.818;2023-06-04T03:21:37;9.90;99.90
6407;DHT22;3236;51.022;6.818;2023-06-04T03:24:05;9.90;99.90
6407;DHT22;3236;51.022;6.818;2023-06-04T03:26:32;9.80;99.90
6407;DHT22;3236;51.022;6.818;2023-06-04T03:28:59;9.70;99.90
6407;DHT22;3236;51.022;6.818;2023-06-04T03:31:28;9.90;99.90
6407;DHT22;3236;51.022;6.818;2023-06-04T03:33:58;9.90;99.90
6407;DHT22;3236;51.022;6.818;2023-06-04T03:36:25;9.90;99.90
6407;DHT22;3236;51.022;6.818;2023-06-04T03:41:25;9.60;99.90
6407;DHT22;3236;51.022;6.818;2023-06-04T03:43:52;10.00;99.90
6407;DHT22;3236;51.022;6.818;2023-06-04T03:46:20;10.00;99.90
6407;DHT22;3236;51.022;6.818;2023-06-04T03:48:48;10.00;99.90
6407;DHT22;3236;51.022;6.818;2023-06-04T03:51:15;10.00;99.90
6407;DHT22;3236;51.022;6.818;2023-06-04T03:53:51;10.00;99.90
6407;DHT22;3236;51.022;6.818;2023-06-04T03:56:18;9.90;99.90
6407;DHT22;3236;51.022;6.818;2023-06-04T03:58:47;9.90;99.90
6407;DHT22;3236;51.022;6.818;2023-06-04T04:01:14;9.90;99.90
6407;DHT22;3236;51.022;6.818;2023-06-04T04:03:42;10.00;99.90
6407;DHT22;3236;51.022;6.818;2023-06-04T04:06:18;9.90;99.90
6407;DHT22;3236;51.022;6.818;2023-06-04T04:08:45;10.00;99.90
6407;DHT22;3236;51.022;6.818;2023-06-04T04:11:20;10.10;99.90
6407;DHT22;3236;51.022;6.818;2023-06-04T04:13:47;10.10;99.90
6407;DHT22;3236;51.022;6.818;2023-06-04T04:16:14;10.20;99.90
6407;DHT22;3236;51.022;6.818;2023-06-04T04:18:46;10.20;99.90
6407;DHT22;3236;51.022;6.818;2023-06-04T04:21:13;10.30;99.90
6407;DHT22;3236;51.022;6.818;2023-06-04T04:23:49;10.30;99.90
6407;DHT22;3236;51.022;6.818;2023-06-04T04:26:17;10.30;99.90
6407;DHT22;3236;51.022;6.818;2023-06-04T04:28:44;10.50;99.90
6407;DHT22;3236;51.022;6.818;2023-06-04T04:31:19;10.50;99.90
6407;DHT22;3236;51.022;6.818;2023-06-04T04:33:50;10.60;99.90
6407;DHT22;3236;51.022;6.818;2023-06-04T04:36:18;10.60;99.90
6407;DHT22;3236;51.022;6.818;2023-06-04T04:38:55;10.60;99.90
6407;DHT22;3236;51.022;6.818;2023-06-04T05:03:53;11.80;99.90
6407;DHT22;3236;51.022;6.818;2023-06-04T05:06:25;11.80;99.90
6407;DHT22;3236;51.022;6.818;2023-06-04T05:08:54;11.90;99.90
6407;DHT22;3236;51.022;6.818;2023-06-04T05:18:46;12.50;99.90
6407;DHT22;3236;51.022;6.818;2023-06-04T05:21:13;12.30;99.90
6407;DHT22;3236;51.022;6.818;2023-06-04T05:23:40;12.50;99.90
6407;DHT22;3236;51.022;6.818;2023-06-04T05:28:37;12.60;99.90
6407;DHT22;3236;51.022;6.818;2023-06-04T05:31:05;12.70;99.90
6407;DHT22;3236;51.022;6.818;2023-06-04T05:33:35;12.80;99.90
6407;DHT22;3236;51.022;6.818;2023-06-04T05:36:02;12.90;99.90
6407;DHT22;3236;51.022;6.818;2023-06-04T05:38:29;12.90;99.90
6407;DHT22;3236;51.022;6.818;2023-06-04T05:43:25;13.20;99.90
6407;DHT22;3236;51.022;6.818;2023-06-04T05:45:53;13.20;99.90
6407;DHT22;3236;51.022;6.818;2023-06-04T05:48:20;13.40;99.90
6407;DHT22;3236;51.022;6.818;2023-06-04T05:50:47;13.40;99.90
6407;DHT22;3236;51.022;6.818;2023-06-04T05:53:14;13.50;99.90
6407;DHT22;3236;51.022;6.818;2023-06-04T05:55:41;13.80;99.90
6407;DHT22;3236;51.022;6.818;2023-06-04T05:58:11;13.70;99.90
6407;DHT22;3236;51.022;6.818;2023-06-04T06:00:40;13.80;99.90
6407;DHT22;3236;51.022;6.818;2023-06-04T06:03:07;13.90;99.90
6407;DHT22;3236;51.022;6.818;2023-06-04T06:05:35;14.20;99.90
6407;DHT22;3236;51.022;6.818;2023-06-04T06:08:03;14.10;99.90
6407;DHT22;3236;51.022;6.818;2023-06-04T06:10:31;14.30;99.90
6407;DHT22;3236;51.022;6.818;2023-06-04T06:12:59;14.40;99.90
6407;DHT22;3236;51.022;6.818;2023-06-04T06:15:26;14.40;99.90
6407;DHT22;3236;51.022;6.818;2023-06-04T06:20:23;14.70;99.90
6407;DHT22;3236;51.022;6.818;2023-06-04T06:22:50;14.70;99.90
6407;DHT22;3236;51.022;6.818;2023-06-04T06:25:23;14.80;99.90
6407;DHT22;3236;51.022;6.818;2023-06-04T06:30:17;14.80;99.90
6407;DHT22;3236;51.022;6.818;2023-06-04T06:32:44;14.80;99.90
6407;DHT22;3236;51.022;6.818;2023-06-04T06:35:15;15.10;99.90
6407;DHT22;3236;51.022;6.818;2023-06-04T06:37:42;15.20;99.90
6407;DHT22;3236;51.022;6.818;2023-06-04T06:40:10;15.30;99.90
6407;DHT22;3236;51.022;6.818;2023-06-04T06:42:37;15.40;99.90
6407;DHT22;3236;51.022;6.818;2023-06-04T06:45:05;15.70;99.90
6407;DHT22;3236;51.022;6.818;2023-06-04T06:47:33;16.10;99.70
6407;DHT22;3236;51.022;6.818;2023-06-04T06:50:00;16.10;99.80
6407;DHT22;3236;51.022;6.818;2023-06-04T06:54:56;16.60;96.10
6407;DHT22;3236;51.022;6.818;2023-06-04T06:59:53;16.90;91.30
6407;DHT22;3236;51.022;6.818;2023-06-04T07:02:21;17.00;91.20
6407;DHT22;3236;51.022;6.818;2023-06-04T07:04:49;17.10;91.60
6407;DHT22;3236;51.022;6.818;2023-06-04T07:07:16;17.50;91.20
6407;DHT22;3236;51.022;6.818;2023-06-04T07:09:44;17.10;86.20
6407;DHT22;3236;51.022;6.818;2023-06-04T07:12:11;17.60;89.60
6407;DHT22;3236;51.022;6.818;2023-06-04T07:14:38;17.70;90.10
6407;DHT22;3236;51.022;6.818;2023-06-04T07:17:06;18.00;88.30
6407;DHT22;3236;51.022;6.818;2023-06-04T07:19:33;18.20;85.50
6407;DHT22;3236;51.022;6.818;2023-06-04T07:22:00;18.80;82.80
6407;DHT22;3236;51.022;6.818;2023-06-04T07:24:29;18.90;80.50
6407;DHT22;3236;51.022;6.818;2023-06-04T07:27:10;18.90;79.00
6407;DHT22;3236;51.022;6.818;2023-06-04T07:29:37;19.00;77.70
6407;DHT22;3236;51.022;6.818;2023-06-04T07:32:05;19.40;78.00
6407;DHT22;3236;51.022;6.818;2023-06-04T07:34:32;19.30;78.30
6407;DHT22;3236;51.022;6.818;2023-06-04T07:36:59;19.40;75.10
6407;DHT22;3236;51.022;6.818;2023-06-04T07:39:26;19.50;72.80
6407;DHT22;3236;51.022;6.818;2023-06-04T07:41:54;19.50;73.90
6407;DHT22;3236;51.022;6.818;2023-06-04T07:44:22;19.50;76.00
6407;DHT22;3236;51.022;6.818;2023-06-04T07:46:49;19.80;74.60
6407;DHT22;3236;51.022;6.818;2023-06-04T07:49:16;20.00;71.80
6407;DHT22;3236;51.022;6.818;2023-06-04T07:51:43;20.00;72.60
6407;DHT22;3236;51.022;6.818;2023-06-04T07:54:11;20.40;71.60
6407;DHT22;3236;51.022;6.818;2023-06-04T07:56:39;20.40;69.50
6407;DHT22;3236;51.022;6.818;2023-06-04T07:59:07;20.60;67.90
6407;DHT22;3236;51.022;6.818;2023-06-04T08:01:35;20.70;67.20
6407;DHT22;3236;51.022;6.818;2023-06-04T08:04:02;20.60;67.20
6407;DHT22;3236;51.022;6.818;2023-06-04T08:06:29;20.70;65.90
6407;DHT22;3236;51.022;6.818;2023-06-04T08:09:09;20.90;62.30
6407;DHT22;3236;51.022;6.818;2023-06-04T08:11:38;20.70;60.60
6407;DHT22;3236;51.022;6.818;2023-06-04T08:14:05;20.70;63.60
6407;DHT22;3236;51.022;6.818;2023-06-04T08:16:32;20.60;67.10
6407;DHT22;3236;51.022;6.818;2023-06-04T08:19:01;20.60;62.40
6407;DHT22;3236;51.022;6.818;2023-06-04T08:26:24;20.70;58.80
6407;DHT22;3236;51.022;6.818;2023-06-04T08:33:47;22.20;48.90
6407;DHT22;3236;51.022;6.818;2023-06-04T08:36:16;22.50;46.50
6407;DHT22;3236;51.022;6.818;2023-06-04T08:38:44;22.70;42.20
6407;DHT22;3236;51.022;6.818;2023-06-04T08:41:16;22.60;41.70
6407;DHT22;3236;51.022;6.818;2023-06-04T08:43:45;22.60;45.50
6407;DHT22;3236;51.022;6.818;2023-06-04T08:46:17;22.70;34.00
6407;DHT22;3236;51.022;6.818;2023-06-04T08:48:45;23.10;33.70
6407;DHT22;3236;51.022;6.818;2023-06-04T08:51:16;23.20;34.20
6407;DHT22;3236;51.022;6.818;2023-06-04T08:53:43;23.50;35.30
6407;DHT22;3236;51.022;6.818;2023-06-04T08:56:15;23.50;30.00
6407;DHT22;3236;51.022;6.818;2023-06-04T08:58:56;23.20;29.00
6407;DHT22;3236;51.022;6.818;2023-06-04T09:01:31;23.20;29.30
6407;DHT22;3236;51.022;6.818;2023-06-04T09:06:48;24.00;24.70
6407;DHT22;3236;51.022;6.818;2023-06-04T09:09:15;23.80;22.50
6407;DHT22;3236;51.022;6.818;2023-06-04T09:11:49;23.40;20.90
6407;DHT22;3236;51.022;6.818;2023-06-04T09:14:17;23.50;23.00
6407;DHT22;3236;51.022;6.818;2023-06-04T09:19:13;24.50;20.60
6407;DHT22;3236;51.022;6.818;2023-06-04T09:21:52;25.00;21.10
6407;DHT22;3236;51.022;6.818;2023-06-04T09:24:21;25.40;16.80
6407;DHT22;3236;51.022;6.818;2023-06-04T09:26:48;25.50;16.90
6407;DHT22;3236;51.022;6.818;2023-06-04T09:29:16;25.10;15.70
6407;DHT22;3236;51.022;6.818;2023-06-04T09:31:45;24.70;13.90
6407;DHT22;3236;51.022;6.818;2023-06-04T09:34:12;24.80;14.40
6407;DHT22;3236;51.022;6.818;2023-06-04T09:36:42;24.70;13.30
6407;DHT22;3236;51.022;6.818;2023-06-04T09:39:17;24.70;14.10
6407;DHT22;3236;51.022;6.818;2023-06-04T09:41:45;24.50;11.10
6407;DHT22;3236;51.022;6.818;2023-06-04T09:44:24;24.60;12.60
6407;DHT22;3236;51.022;6.818;2023-06-04T09:46:55;24.70;12.00
6407;DHT22;3236;51.022;6.818;2023-06-04T09:49:23;24.00;11.50
6407;DHT22;3236;51.022;6.818;2023-06-04T09:51:53;24.70;13.30
6407;DHT22;3236;51.022;6.818;2023-06-04T09:54:22;26.10;10.90
6407;DHT22;3236;51.022;6.818;2023-06-04T09:56:52;26.10;10.50
6407;DHT22;3236;51.022;6.818;2023-06-04T09:59:19;26.70;10.20
6407;DHT22;3236;51.022;6.818;2023-06-04T10:01:47;26.90;10.00
6407;DHT22;3236;51.022;6.818;2023-06-04T10:04:15;26.80;10.00
6407;DHT22;3236;51.022;6.818;2023-06-04T10:06:43;27.10;8.80
6407;DHT22;3236;51.022;6.818;2023-06-04T10:09:12;27.30;7.60
6407;DHT22;3236;51.022;6.818;2023-06-04T10:11:46;27.20;8.10
6407;DHT22;3236;51.022;6.818;2023-06-04T10:14:19;27.80;6.50
6407;DHT22;3236;51.022;6.818;2023-06-04T10:16:48;27.80;6.80
6407;DHT22;3236;51.022;6.818;2023-06-04T10:19:18;28.20;6.70
6407;DHT22;3236;51.022;6.818;2023-06-04T10:21:47;27.90;5.20
6407;DHT22;3236;51.022;6.818;2023-06-04T10:24:14;27.70;5.20
6407;DHT22;3236;51.022;6.818;2023-06-04T10:26:43;27.70;5.90
6407;DHT22;3236;51.022;6.818;2023-06-04T10:29:14;28.10;5.20
6407;DHT22;3236;51.022;6.818;2023-06-04T10:31:54;28.30;3.60
6407;DHT22;3236;51.022;6.818;2023-06-04T10:34:21;28.30;3.70
6407;DHT22;3236;51.022;6.818;2023-06-04T10:36:49;27.70;2.40
6407;DHT22;3236;51.022;6.818;2023-06-04T10:39:25;27.50;3.00
6407;DHT22;3236;51.022;6.818;2023-06-04T10:42:03;27.40;3.80
6407;DHT22;3236;51.022;6.818;2023-06-04T10:44:31;27.30;3.90
6407;DHT22;3236;51.022;6.818;2023-06-04T10:49:44;27.20;2.50
6407;DHT22;3236;51.022;6.818;2023-06-04T10:52:16;27.60;2.90
6407;DHT22;3236;51.022;6.818;2023-06-04T10:54:45;28.00;1.50
6407;DHT22;3236;51.022;6.818;2023-06-04T10:57:16;27.90;1.80
6407;DHT22;3236;51.022;6.818;2023-06-04T10:59:54;27.70;1.50
6407;DHT22;3236;51.022;6.818;2023-06-04T11:02:21;27.80;2.60
6407;DHT22;3236;51.022;6.818;2023-06-04T11:05:01;28.30;2.10
6407;DHT22;3236;51.022;6.818;2023-06-04T11:07:41;28.40;1.10
6407;DHT22;3236;51.022;6.818;2023-06-04T11:10:09;28.40;1.20
6407;DHT22;3236;51.022;6.818;2023-06-04T11:12:49;28.50;2.10
6407;DHT22;3236;51.022;6.818;2023-06-04T11:15:20;28.90;1.90
6407;DHT22;3236;51.022;6.818;2023-06-04T11:17:51;28.40;1.00
6407;DHT22;3236;51.022;6.818;2023-06-04T11:20:18;28.40;1.00
6407;DHT22;3236;51.022;6.818;2023-06-04T11:22:56;26.90;1.00
6407;DHT22;3236;51.022;6.818;2023-06-04T11:25:33;27.80;1.00
6407;DHT22;3236;51.022;6.818;2023-06-04T11:28:01;28.10;1.00
6407;DHT22;3236;51.022;6.818;2023-06-04T11:30:29;28.00;1.00
6407;DHT22;3236;51.022;6.818;2023-06-04T11:33:03;28.10;1.00
6407;DHT22;3236;51.022;6.818;2023-06-04T11:35:40;28.60;1.00
6407;DHT22;3236;51.022;6.818;2023-06-04T11:38:08;28.90;1.00
6407;DHT22;3236;51.022;6.818;2023-06-04T11:40:35;28.90;1.00
6407;DHT22;3236;51.022;6.818;2023-06-04T11:43:05;29.40;1.00
6407;DHT22;3236;51.022;6.818;2023-06-04T11:45:32;29.40;1.00
6407;DHT22;3236;51.022;6.818;2023-06-04T11:48:00;28.80;1.00
6407;DHT22;3236;51.022;6.818;2023-06-04T11:50:28;28.70;1.00
6407;DHT22;3236;51.022;6.818;2023-06-04T11:52:55;29.10;1.00
6407;DHT22;3236;51.022;6.818;2023-06-04T11:55:22;28.80;1.00
6407;DHT22;3236;51.022;6.818;2023-06-04T11:57:50;28.80;1.00
6407;DHT22;3236;51.022;6.818;2023-06-04T12:00:20;28.40;1.00
6407;DHT22;3236;51.022;6.818;2023-06-04T12:02:51;28.30;1.00
6407;DHT22;3236;51.022;6.818;2023-06-04T12:05:28;28.30;1.00
6407;DHT22;3236;51.022;6.818;2023-06-04T12:08:04;28.80;1.00
6407;DHT22;3236;51.022;6.818;2023-06-04T12:10:39;29.30;1.00
6407;DHT22;3236;51.022;6.818;2023-06-04T12:13:07;29.20;1.00
6407;DHT22;3236;51.022;6.818;2023-06-04T12:15:36;29.50;1.00
6407;DHT22;3236;51.022;6.818;2023-06-04T12:18:03;29.70;1.00
6407;DHT22;3236;51.022;6.818;2023-06-04T12:20:33;29.90;1.00
6407;DHT22;3236;51.022;6.818;2023-06-04T12:23:01;29.80;1.00
6407;DHT22;3236;51.022;6.818;2023-06-04T12:25:29;30.20;1.00
6407;DHT22;3236;51.022;6.818;2023-06-04T12:27:57;30.50;1.00
6407;DHT22;3236;51.022;6.818;2023-06-04T12:30:36;29.80;1.00
6407;DHT22;3236;51.022;6.818;2023-06-04T12:33:03;29.20;1.00
6407;DHT22;3236;51.022;6.818;2023-06-04T12:35:31;28.90;1.00
6407;DHT22;3236;51.022;6.818;2023-06-04T12:38:03;29.60;1.00
6407;DHT22;3236;51.022;6.818;2023-06-04T12:40:31;30.20;1.00
6407;DHT22;3236;51.022;6.818;2023-06-04T12:43:07;30.00;1.00
6407;DHT22;3236;51.022;6.818;2023-06-04T12:45:35;30.00;1.00
6407;DHT22;3236;51.022;6.818;2023-06-04T12:48:03;30.30;1.00
6407;DHT22;3236;51.022;6.818;2023-06-04T12:50:30;30.60;1.00
6407;DHT22;3236;51.022;6.818;2023-06-04T12:52:57;30.20;1.00
6407;DHT22;3236;51.022;6.818;2023-06-04T12:57:53;30.70;1.00
6407;DHT22;3236;51.022;6.818;2023-06-04T13:00:21;30.30;1.00
6407;DHT22;3236;51.022;6.818;2023-06-04T13:02:50;30.10;1.00
6407;DHT22;3236;51.022;6.818;2023-06-04T13:05:17;30.30;1.00
6407;DHT22;3236;51.022;6.818;2023-06-04T13:07:44;29.60;1.00
6407;DHT22;3236;51.022;6.818;2023-06-04T13:10:11;30.20;1.00
6407;DHT22;3236;51.022;6.818;2023-06-04T13:12:38;29.60;1.00
6407;DHT22;3236;51.022;6.818;2023-06-04T13:15:05;29.90;1.00
6407;DHT22;3236;51.022;6.818;2023-06-04T13:17:33;30.20;1.00
6407;DHT22;3236;51.022;6.818;2023-06-04T13:20:01;29.90;1.00
6407;DHT22;3236;51.022;6.818;2023-06-04T13:22:30;29.90;1.00
6407;DHT22;3236;51.022;6.818;2023-06-04T13:24:57;30.30;1.00
6407;DHT22;3236;51.022;6.818;2023-06-04T13:27:24;30.40;1.00
6407;DHT22;3236;51.022;6.818;2023-06-04T13:29:51;31.50;1.00
6407;DHT22;3236;51.022;6.818;2023-06-04T13:32:19;31.70;1.00
6407;DHT22;3236;51.022;6.818;2023-06-04T13:34:46;31.60;1.00
6407;DHT22;3236;51.022;6.818;2023-06-04T13:37:14;30.80;1.00
6407;DHT22;3236;51.022;6.818;2023-06-04T13:39:42;30.80;1.00
6407;DHT22;3236;51.022;6.818;2023-06-04T13:42:12;30.30;1.00
6407;DHT22;3236;51.022;6.818;2023-06-04T13:44:39;30.80;1.00
6407;DHT22;3236;51.022;6.818;2023-06-04T13:47:06;30.30;1.00
6407;DHT22;3236;51.022;6.818;2023-06-04T13:49:34;30.90;1.00
6407;DHT22;3236;51.022;6.818;2023-06-04T13:52:01;31.00;1.00
6407;DHT22;3236;51.022;6.818;2023-06-04T13:54:30;30.50;1.00
6407;DHT22;3236;51.022;6.818;2023-06-04T13:56:57;30.60;1.00
6407;DHT22;3236;51.022;6.818;2023-06-04T13:59:30;30.90;1.00
6407;DHT22;3236;51.022;6.818;2023-06-04T14:02:04;30.80;1.00
6407;DHT22;3236;51.022;6.818;2023-06-04T14:04:31;30.70;1.00
6407;DHT22;3236;51.022;6.818;2023-06-04T14:06:58;31.10;1.00
6407;DHT22;3236;51.022;6.818;2023-06-04T14:09:26;31.30;1.00
6407;DHT22;3236;51.022;6.818;2023-06-04T14:11:56;30.90;1.00
6407;DHT22;3236;51.022;6.818;2023-06-04T14:14:25;31.10;1.00
6407;DHT22;3236;51.022;6.818;2023-06-04T14:16:54;31.30;1.00
6407;DHT22;3236;51.022;6.818;2023-06-04T14:19:22;31.50;1.00
6407;DHT22;3236;51.022;6.818;2023-06-04T14:21:49;31.60;1.00
6407;DHT22;3236;51.022;6.818;2023-06-04T14:24:16;31.40;1.00
6407;DHT22;3236;51.022;6.818;2023-06-04T14:26:43;30.80;1.00
6407;DHT22;3236;51.022;6.818;2023-06-04T14:29:17;31.00;1.00
6407;DHT22;3236;51.022;6.818;2023-06-04T14:31:51;31.00;1.00
6407;DHT22;3236;51.022;6.818;2023-06-04T14:34:18;31.00;1.00
6407;DHT22;3236;51.022;6.818;2023-06-04T14:36:46;31.30;1.00
6407;DHT22;3236;51.022;6.818;2023-06-04T14:39:16;31.40;1.00
6407;DHT22;3236;51.022;6.818;2023-06-04T14:41:43;31.50;1.00
6407;DHT22;3236;51.022;6.818;2023-06-04T14:46:40;31.70;1.00
6407;DHT22;3236;51.022;6.818;2023-06-04T14:49:07;31.90;1.00
6407;DHT22;3236;51.022;6.818;2023-06-04T14:51:34;32.00;1.00
6407;DHT22;3236;51.022;6.818;2023-06-04T14:54:06;31.80;1.00
6407;DHT22;3236;51.022;6.818;2023-06-04T14:56:34;31.00;1.00
6407;DHT22;3236;51.022;6.818;2023-06-04T14:59:09;32.20;1.00
6407;DHT22;3236;51.022;6.818;2023-06-04T15:01:40;32.20;1.00
6407;DHT22;3236;51.022;6.818;2023-06-04T15:04:10;31.80;1.00
6407;DHT22;3236;51.022;6.818;2023-06-04T15:09:06;31.80;1.00
6407;DHT22;3236;51.022;6.818;2023-06-04T15:14:14;31.70;1.00
6407;DHT22;3236;51.022;6.818;2023-06-04T15:16:43;32.70;1.00
6407;DHT22;3236;51.022;6.818;2023-06-04T15:19:16;32.40;1.00
6407;DHT22;3236;51.022;6.818;2023-06-04T15:21:44;32.10;1.00
6407;DHT22;3236;51.022;6.818;2023-06-04T15:24:12;31.80;1.00
6407;DHT22;3236;51.022;6.818;2023-06-04T15:26:40;32.20;1.00
6407;DHT22;3236;51.022;6.818;2023-06-04T15:31:35;31.60;1.00
6407;DHT22;3236;51.022;6.818;2023-06-04T15:34:08;31.70;1.00
6407;DHT22;3236;51.022;6.818;2023-06-04T15:39:04;31.90;1.00
6407;DHT22;3236;51.022;6.818;2023-06-04T15:49:05;31.70;1.00
6407;DHT22;3236;51.022;6.818;2023-06-04T15:54:11;32.30;1.00
6407;DHT22;3236;51.022;6.818;2023-06-04T16:01:43;31.30;1.00
6407;DHT22;3236;51.022;6.818;2023-06-04T16:04:12;31.50;1.00
6407;DHT22;3236;51.022;6.818;2023-06-04T16:06:41;31.60;1.00
6407;DHT22;3236;51.022;6.818;2023-06-04T16:09:09;31.30;1.00
6407;DHT22;3236;51.022;6.818;2023-06-04T16:11:37;31.10;1.00
6407;DHT22;3236;51.022;6.818;2023-06-04T16:14:07;31.60;1.00
6407;DHT22;3236;51.022;6.818;2023-06-04T16:16:35;31.20;1.00
6407;DHT22;3236;51.022;6.818;2023-06-04T16:19:12;31.20;1.00
6407;DHT22;3236;51.022;6.818;2023-06-04T16:21:41;30.80;1.00
6407;DHT22;3236;51.022;6.818;2023-06-04T16:24:09;30.60;1.00
6407;DHT22;3236;51.022;6.818;2023-06-04T16:29:06;30.20;1.00
6407;DHT22;3236;51.022;6.818;2023-06-04T16:31:33;29.90;1.00
6407;DHT22;3236;51.022;6.818;2023-06-04T16:34:02;30.10;1.00
6407;DHT22;3236;51.022;6.818;2023-06-04T16:36:30;30.20;1.00
6407;DHT22;3236;51.022;6.818;2023-06-04T16:41:29;29.60;1.00
6407;DHT22;3236;51.022;6.818;2023-06-04T16:43:57;29.70;1.00
6407;DHT22;3236;51.022;6.818;2023-06-04T16:46:26;29.30;1.00
6407;DHT22;3236;51.022;6.818;2023-06-04T16:54:10;29.50;1.00
6407;DHT22;3236;51.022;6.818;2023-06-04T16:59:14;29.00;1.00
6407;DHT22;3236;51.022;6.818;2023-06-04T17:01:43;29.20;1.00
6407;DHT22;3236;51.022;6.818;2023-06-04T17:09:10;29.40;1.00
6407;DHT22;3236;51.022;6.818;2023-06-04T17:11:39;29.00;1.00
6407;DHT22;3236;51.022;6.818;2023-06-04T17:14:10;28.80;1.00
6407;DHT22;3236;51.022;6.818;2023-06-04T17:16:38;28.80;1.00
6407;DHT22;3236;51.022;6.818;2023-06-04T17:21:37;28.30;1.00
6407;DHT22;3236;51.022;6.818;2023-06-04T17:24:06;27.90;1.00
6407;DHT22;3236;51.022;6.818;2023-06-04T17:29:06;27.80;1.00
6407;DHT22;3236;51.022;6.818;2023-06-04T17:31:35;27.90;1.00
6407;DHT22;3236;51.022;6.818;2023-06-04T17:34:03;28.10;1.00
6407;DHT22;3236;51.022;6.818;2023-06-04T17:38:59;27.50;1.00
6407;DHT22;3236;51.022;6.818;2023-06-04T17:41:27;27.20;1.00
6407;DHT22;3236;51.022;6.818;2023-06-04T17:43:58;27.40;1.00
6407;DHT22;3236;51.022;6.818;2023-06-04T17:48:54;27.20;1.00
6407;DHT22;3236;51.022;6.818;2023-06-04T17:51:23;26.70;1.00
6407;DHT22;3236;51.022;6.818;2023-06-04T17:53:51;26.70;1.00
6407;DHT22;3236;51.022;6.818;2023-06-04T17:56:19;26.60;1.00
6407;DHT22;3236;51.022;6.818;2023-06-04T17:58:50;26.70;1.00
6407;DHT22;3236;51.022;6.818;2023-06-04T18:01:35;26.80;1.00
6407;DHT22;3236;51.022;6.818;2023-06-04T18:04:03;26.80;1.00
6407;DHT22;3236;51.022;6.818;2023-06-04T18:06:31;26.80;1.00
6407;DHT22;3236;51.022;6.818;2023-06-04T18:09:01;26.80;1.00
6407;DHT22;3236;51.022;6.818;2023-06-04T18:11:32;26.80;1.00
6407;DHT22;3236;51.022;6.818;2023-06-04T18:14:03;26.50;1.00
6407;DHT22;3236;51.022;6.818;2023-06-04T18:16:30;26.30;1.00
6407;DHT22;3236;51.022;6.818;2023-06-04T18:19:02;26.30;1.00
6407;DHT22;3236;51.022;6.818;2023-06-04T18:21:30;26.30;1.00
6407;DHT22;3236;51.022;6.818;2023-06-04T18:23:58;26.10;1.00
6407;DHT22;3236;51.022;6.818;2023-06-04T18:28:57;25.50;1.00
6407;DHT22;3236;51.022;6.818;2023-06-04T18:38:59;24.40;1.00
6407;DHT22;3236;51.022;6.818;2023-06-04T18:41:26;23.80;1.20
6407;DHT22;3236;51.022;6.818;2023-06-04T18:48:49;23.00;2.50
6407;DHT22;3236;51.022;6.818;2023-06-04T18:53:56;22.70;2.90
6407;DHT22;3236;51.022;6.818;2023-06-04T18:56:23;22.50;3.20
6407;DHT22;3236;51.022;6.818;2023-06-04T18:59:03;22.20;3.30
6407;DHT22;3236;51.022;6.818;2023-06-04T19:01:36;22.20;3.20
6407;DHT22;3236;51.022;6.818;2023-06-04T19:04:03;23.30;4.30
6407;DHT22;3236;51.022;6.818;2023-06-04T19:06:37;21.90;4.40
6407;DHT22;3236;51.022;6.818;2023-06-04T19:09:05;21.90;5.00
6407;DHT22;3236;51.022;6.818;2023-06-04T19:11:32;21.70;5.20
6407;DHT22;3236;51.022;6.818;2023-06-04T19:13:59;21.70;5.60
6407;DHT22;3236;51.022;6.818;2023-06-04T19:16:27;21.50;6.30
6407;DHT22;3236;51.022;6.818;2023-06-04T19:18:55;21.30;6.70
6407;DHT22;3236;51.022;6.818;2023-06-04T19:21:23;21.00;8.30
6407;DHT22;3236;51.022;6.818;2023-06-04T19:23:52;20.90;9.10